Home   Weather   India   Ganganagar   Past weeks
Flag for India

Past Weather in Ganganagar, Rajasthan, India — Yesterday and Last 2 Weeks

Currently: 73 °F. Haze. (Weather station: Lahore Airport, India). See more current weather

Past Weather in Ganganagar — Graph

°F

Ganganagar Temperature Yesterday

Maximum temperature yesterday: 73 °F (at 1:55 pm)
Minimum temperature yesterday: 48 °F (at 6:55 am)
Average temperature yesterday: 60 °F

High & Low Weather Summary for the Past Weeks

 TemperatureHumidityPressure
High79 °F (Nov 22, 2:25 pm)94% (Nov 22, 6:55 pm)30.30 "Hg (Nov 22, 6:55 pm)
Low46 °F (Nov 28, 7:25 am)23% (Nov 23, 3:25 pm)29.83 "Hg (Nov 27, 3:25 pm)
Average63 °F66%29.97 "Hg
* Reported Nov 21 3:55 pm — Dec 6 4:25 pm, Ganganagar. Weather by CustomWeather, © 2022

Note: Actual official high and low records may vary slightly from our data, if they occured in-between our weather recording intervals... More about our weather records

Ganganagar Weather History for the Previous 24 Hours

Scroll right to see more
 ConditionsComfort  
Time TempWeatherWind HumidityBarometerVisibility
4:25 pm
Tue, Dec 6
73 °FHaze.6 mph44%29.98 "Hg2 mi
3:25 pm75 °FHaze.12 mph41%29.98 "Hg2 mi
2:55 pm73 °FHaze.12 mph41%29.98 "Hg2 mi
2:25 pm73 °FHaze.7 mph41%30.01 "Hg2 mi
1:55 pm72 °FHaze.3 mph44%30.01 "Hg1 mi
1:25 pm72 °FHaze.5 mph44%30.04 "Hg1 mi
12:55 pm70 °FHaze.6 mph46%30.04 "Hg1 mi
12:25 pm70 °FHaze.8 mph46%30.04 "Hg1 mi
11:55 am68 °FClear.5 mph49%30.07 "Hg1 mi
11:25 am66 °FClear.6 mph52%30.07 "Hg1 mi
10:55 am63 °FClear.3 mph59%30.09 "Hg1 mi
10:25 am61 °FClear.5 mph63%30.09 "Hg1 mi
9:55 am59 °FClear.No wind72%30.09 "Hg1 mi
9:25 am55 °FFog.No wind82%30.07 "Hg1 mi
8:55 am52 °FFog.No wind82%30.04 "Hg1 mi
8:25 am50 °FFog.No wind88%30.04 "Hg1 mi
7:55 am48 °FFog.5 mph87%30.04 "Hg1 mi
7:25 am48 °FFog.No wind87%30.04 "Hg1 mi
6:55 am50 °FFog.No wind82%30.04 "Hg1 mi
6:25 am50 °FFog.No wind82%30.01 "Hg1 mi
4:55 am52 °FFog.No wind88%30.01 "Hg1 mi
4:25 am52 °FFog.No wind88%30.01 "Hg1 mi
3:55 am54 °FFog.No wind88%30.01 "Hg1 mi
3:25 am54 °FFog.No wind88%30.04 "Hg1 mi
2:55 am55 °FFog.No wind88%30.07 "Hg1 mi
2:25 am55 °FFog.No wind88%30.07 "Hg1 mi
1:55 am55 °FFog.No wind88%30.07 "Hg1 mi
1:25 am55 °FFog.2 mph88%30.07 "Hg1 mi
12:55 am57 °FFog.No wind82%30.04 "Hg1 mi
12:25 am57 °FFog.No wind82%30.04 "Hg1 mi
11:55 pm
Mon, Dec 5
57 °FFog.No wind82%30.07 "Hg1 mi
11:25 pm57 °FFog.No wind82%30.07 "Hg1 mi
10:55 pm59 °FClear.No wind77%30.07 "Hg1 mi
10:25 pm59 °FClear.No wind77%30.07 "Hg1 mi
9:55 pm61 °FClear.No wind72%30.07 "Hg2 mi
9:25 pm61 °FClear.No wind72%30.07 "Hg2 mi
8:55 pm63 °FClear.No wind68%30.07 "Hg2 mi
8:25 pm63 °FClear.No wind68%30.07 "Hg2 mi
7:55 pm64 °FClear.No wind64%30.07 "Hg2 mi
7:25 pm64 °FClear.No wind64%30.07 "Hg2 mi
6:55 pm66 °FPassing clouds.No wind60%30.04 "Hg2 mi
6:25 pm66 °FClear.No wind60%30.04 "Hg2 mi
5:25 pm70 °FHaze.5 mph50%30.04 "Hg1 mi
Weather by CustomWeather, © 2022

See weather overview